»·PEaware :: UAL465 KLAS-KSFO

UAL465 :: KLAS-KSFO

FLIGHT INFORMATION

Flight Status: Arrived
Operator:
United Airlines
More flights by this operator :: More flights under this callsign
Pilot: Matt G. (13672)
Aircraft: BOEING 757-200
(B752)
More flights by this aircraft type
Origin: KLAS McCarran Intl
United States
Destination: KSFO San Francisco Intl
United States
More flights between these airports :: More routes between these airports
Route: SHEAD1 KENNO RUSME DYAMD4
File this flight plan on PilotEdge
Remarks: Will request ILS 28L
Altitude:
(Current/Filed)
30,000ft
Speed:
(Current/Filed)
428kts
Departed: 29-Sep-18 04:04 PM
Arrived: 29-Sep-18 05:12 PM
Distance/Time
Traveled:
176nm/1:08
Distance/Time
To Go:
Arrived

Flight Plot

Page will automatically refresh every two minutes.

Flight plan parsing failed; only flown route is shown


Map Options




Map Legend


Flown Route
Filed Route
Departure Airport
Arrival Airport
Navaid (VOR, NDB)
Fix

Horizontal Profiles

Position Reports

Time Latitude Longitude Heading Altitude Ground
Speed
29-Sep-18 15:31 36.082164 -115.140065 47 2123ft 0kts
29-Sep-18 15:32 36.082164 -115.140065 47 2123ft 0kts
29-Sep-18 15:33 36.082164 -115.140065 47 2123ft 0kts
29-Sep-18 15:34 36.082164 -115.140065 47 2123ft 0kts
29-Sep-18 15:35 36.082164 -115.140065 47 2123ft 0kts
29-Sep-18 15:36 36.082164 -115.140065 47 2123ft 0kts
29-Sep-18 15:37 36.082164 -115.140065 47 2123ft 0kts
29-Sep-18 15:38 36.082164 -115.140065 47 2122ft 0kts
29-Sep-18 15:39 36.082164 -115.140065 47 2122ft 0kts
29-Sep-18 15:40 36.082164 -115.140065 47 2122ft 0kts
29-Sep-18 15:41 36.082164 -115.140065 47 2122ft 0kts
29-Sep-18 15:42 36.082164 -115.140065 47 2122ft 0kts
29-Sep-18 15:43 36.082164 -115.140065 47 2122ft 0kts
29-Sep-18 15:44 36.082164 -115.140065 47 2122ft 0kts
29-Sep-18 15:45 36.082164 -115.140065 47 2122ft 0kts
29-Sep-18 15:46 36.082164 -115.140065 47 2122ft 0kts
29-Sep-18 15:47 36.082164 -115.140065 47 2122ft 0kts
29-Sep-18 15:48 36.082164 -115.140065 47 2122ft 0kts
29-Sep-18 15:49 36.082164 -115.140065 47 2122ft 0kts
29-Sep-18 15:50 36.082164 -115.140065 47 2122ft 0kts
29-Sep-18 15:51 36.082164 -115.140065 47 2122ft 0kts
29-Sep-18 15:52 36.082164 -115.140066 47 2122ft 0kts
29-Sep-18 15:53 36.081734 -115.140543 55 2122ft 2kts
29-Sep-18 15:54 36.081695 -115.141242 119 2122ft 2kts
29-Sep-18 15:55 36.082187 -115.141588 183 2122ft 2kts
29-Sep-18 15:56 36.082458 -115.141582 180 2122ft 0kts
29-Sep-18 15:57 36.082458 -115.141582 180 2122ft 0kts
29-Sep-18 15:58 36.081877 -115.141598 181 2122ft 11kts
29-Sep-18 15:59 36.079005 -115.140321 130 2122ft 5kts
29-Sep-18 16:00 36.078242 -115.136071 89 2122ft 22kts
29-Sep-18 16:01 36.078252 -115.126223 90 2122ft 29kts
29-Sep-18 16:02 36.077514 -115.121661 132 2123ft 0kts
29-Sep-18 16:03 36.077514 -115.121661 132 2123ft 0kts
29-Sep-18 16:04 36.077514 -115.121661 132 2123ft 0kts
29-Sep-18 16:05 36.076407 -115.121887 267 2122ft 3kts
29-Sep-18 16:06 36.076394 -115.137551 268 2123ft 123kts
29-Sep-18 16:07 36.076818 -115.186104 263 2854ft 147kts
29-Sep-18 16:08 36.074546 -115.245769 243 3717ft 196kts
29-Sep-18 16:09 36.016144 -115.280886 202 5135ft 261kts
29-Sep-18 16:10 35.955944 -115.321120 223 8005ft 257kts
29-Sep-18 16:11 35.904290 -115.382792 223 9027ft 261kts
29-Sep-18 16:12 35.887394 -115.468214 267 10288ft 316kts
29-Sep-18 16:13 35.889035 -115.573189 269 10977ft 344kts
29-Sep-18 16:14 35.891138 -115.688333 268 12047ft 346kts
29-Sep-18 16:15 35.893090 -115.805648 271 14676ft 349kts
29-Sep-18 16:16 35.895106 -115.926081 273 16849ft 360kts
29-Sep-18 16:17 35.945930 -116.028250 315 18956ft 371kts
29-Sep-18 16:18 36.020781 -116.114793 315 20918ft 381kts
29-Sep-18 16:19 36.098639 -116.204656 315 22847ft 391kts
29-Sep-18 16:20 36.177422 -116.295805 315 24622ft 402kts
29-Sep-18 16:21 36.259339 -116.390852 315 26211ft 413kts
29-Sep-18 16:22 36.339586 -116.484241 315 27618ft 423kts
29-Sep-18 16:23 36.424766 -116.583670 316 28990ft 433kts
29-Sep-18 16:24 36.512938 -116.686927 315 29891ft 449kts
29-Sep-18 16:25 36.605742 -116.778943 327 29887ft 442kts
29-Sep-18 16:26 36.709687 -116.858451 327 29883ft 442kts
29-Sep-18 16:27 36.812672 -116.936976 327 29886ft 443kts
29-Sep-18 16:28 36.916738 -117.016514 327 29886ft 442kts
29-Sep-18 16:29 37.020187 -117.095830 327 29918ft 442kts
29-Sep-18 16:30 37.122822 -117.174777 327 29967ft 442kts
29-Sep-18 16:31 37.226852 -117.255044 327 29966ft 442kts
29-Sep-18 16:32 37.327679 -117.342384 319 29965ft 442kts
29-Sep-18 16:33 37.421169 -117.441781 318 29965ft 441kts
29-Sep-18 16:34 37.492200 -117.563860 286 29973ft 439kts
29-Sep-18 16:35 37.509422 -117.711344 276 29968ft 439kts
29-Sep-18 16:36 37.521890 -117.858960 274 29867ft 441kts
29-Sep-18 16:37 37.534202 -118.012294 274 29827ft 441kts
29-Sep-18 16:38 37.546210 -118.165085 274 29832ft 441kts
29-Sep-18 16:39 37.558068 -118.318602 274 29831ft 441kts
29-Sep-18 16:40 37.569690 -118.471667 274 29831ft 441kts
29-Sep-18 16:41 37.581131 -118.625028 274 29848ft 442kts
29-Sep-18 16:42 37.591914 -118.772059 274 30047ft 441kts
29-Sep-18 16:43 37.602897 -118.924539 274 30048ft 440kts
29-Sep-18 16:44 37.613847 -119.079195 274 30045ft 438kts
29-Sep-18 16:45 37.624474 -119.232441 274 30049ft 441kts
29-Sep-18 16:46 37.634905 -119.385699 274 30048ft 441kts
29-Sep-18 16:47 37.645189 -119.539738 274 30046ft 441kts
29-Sep-18 16:48 37.654997 -119.689532 273 29994ft 441kts
29-Sep-18 16:49 37.664735 -119.841238 273 30038ft 438kts
29-Sep-18 16:50 37.674419 -119.995297 273 30103ft 443kts
29-Sep-18 16:51 37.683719 -120.146334 273 30101ft 441kts
29-Sep-18 16:52 37.692671 -120.294878 273 29730ft 427kts
29-Sep-18 16:53 37.693625 -120.443149 261 27639ft 413kts
29-Sep-18 16:54 37.678653 -120.579737 260 24656ft 385kts
29-Sep-18 16:55 37.663654 -120.708046 259 21353ft 362kts
29-Sep-18 16:56 37.649057 -120.830116 259 19232ft 351kts
29-Sep-18 16:57 37.634134 -120.953619 259 17776ft 349kts
29-Sep-18 16:58 37.618220 -121.073651 258 16233ft 344kts
29-Sep-18 16:59 37.602572 -121.190281 258 14778ft 336kts
29-Sep-18 17:00 37.587930 -121.304665 260 13446ft 330kts
29-Sep-18 17:01 37.575025 -121.416849 260 12190ft 324kts
29-Sep-18 17:02 37.562258 -121.526882 260 10959ft 318kts
29-Sep-18 17:03 37.549133 -121.631379 253 9947ft 270kts
29-Sep-18 17:04 37.528052 -121.719967 253 9244ft 267kts
29-Sep-18 17:05 37.506807 -121.808791 254 8316ft 268kts
29-Sep-18 17:06 37.493245 -121.894537 285 7019ft 247kts
29-Sep-18 17:07 37.498633 -121.979900 268 5868ft 244kts
29-Sep-18 17:08 37.501687 -122.062618 272 4462ft 237kts
29-Sep-18 17:09 37.521640 -122.138363 299 3501ft 237kts
29-Sep-18 17:10 37.551683 -122.210049 299 2600ft 216kts
29-Sep-18 17:11 37.576392 -122.268666 296 1608ft 159kts
29-Sep-18 17:12 37.594676 -122.312429 295 862ft 147kts
29-Sep-18 17:13 37.612872 -122.355501 293 81ft 128kts
29-Sep-18 17:14 37.621885 -122.377496 285 24ft 36kts
29-Sep-18 17:15 37.622101 -122.385191 254 24ft 18kts
29-Sep-18 17:16 37.619939 -122.385404 207 24ft 14kts
29-Sep-18 17:17 37.618834 -122.385213 154 24ft 0kts
29-Sep-18 17:18 37.618834 -122.385213 154 24ft 0kts
29-Sep-18 17:19 37.618834 -122.385213 154 24ft 0kts
29-Sep-18 17:20 37.618834 -122.385213 154 24ft 0kts
29-Sep-18 17:21 37.618834 -122.385213 154 24ft 0kts
29-Sep-18 17:22 37.618834 -122.385213 154 24ft 0kts
29-Sep-18 17:23 37.558622 -118.325845 274 29831ft 441kts

Navigation Log

Ident Type
Flight plan parsing failed, navigation log unavailable